Time;durP1;ratioP1;P1;durP2;ratioP2;P2;SDS_P1;SDS_P2;PMS_P1;PMS_P2;Temp;Humidity;BMP_temperature;BMP_pressure;BME280_temperature;BME280_humidity;BME280_pressure;Samples;Min_cycle;Max_cycle;Signal;HPM_P1;HPM_P2
2021/06/26 00:00:56;;;;;;;30.25;18.10;;;;;;;14.84;100.00;98112.28;4976170;28;20049;-81
2021/06/26 00:03:25;;;;;;;34.10;17.95;;;;;;;14.92;100.00;98108.72;4956389;28;20069;-81
2021/06/26 00:05:53;;;;;;;33.20;17.92;;;;;;;14.93;100.00;98120.44;4957256;28;20043;-81
2021/06/26 00:08:21;;;;;;;34.75;17.88;;;;;;;14.91;100.00;98115.31;4957254;28;20102;-82
2021/06/26 00:10:47;;;;;;;40.05;18.75;;;;;;;14.86;100.00;98112.78;4974318;28;20066;-80
2021/06/26 00:13:15;;;;;;;34.80;19.55;;;;;;;14.90;100.00;98115.63;4957131;28;20051;-79
2021/06/26 00:15:42;;;;;;;38.17;20.02;;;;;;;14.88;100.00;98110.53;4956328;28;20175;-80
2021/06/26 00:18:09;;;;;;;35.85;18.42;;;;;;;14.84;100.00;98114.25;4956703;28;20498;-80
2021/06/26 00:20:36;;;;;;;30.17;17.00;;;;;;;14.81;100.00;98118.41;4957115;28;20106;-80
2021/06/26 00:23:05;;;;;;;30.98;16.25;;;;;;;14.90;100.00;98110.19;4974371;28;20406;-81
2021/06/26 00:25:32;;;;;;;42.47;17.50;;;;;;;14.87;100.00;98116.28;4974388;28;20057;-81
2021/06/26 00:27:58;;;;;;;37.85;14.02;;;;;;;14.77;100.00;98111.22;4974717;28;20065;-81
2021/06/26 00:30:26;;;;;;;40.78;13.10;;;;;;;14.63;100.00;98114.22;4973963;28;20138;-80
2021/06/26 00:32:54;;;;;;;34.53;13.45;;;;;;;14.59;100.00;98107.81;4974646;28;20042;-79
2021/06/26 00:35:20;;;;;;;34.47;13.77;;;;;;;14.60;100.00;98109.41;4957059;28;20130;-79
2021/06/26 00:37:47;;;;;;;33.85;14.48;;;;;;;14.66;100.00;98120.94;4956948;28;20050;-81
2021/06/26 00:40:14;;;;;;;27.80;14.80;;;;;;;14.69;100.00;98118.31;4974005;28;20038;-81
2021/06/26 00:42:43;;;;;;;25.42;14.65;;;;;;;14.67;100.00;98120.59;4957276;28;20046;-79
2021/06/26 00:45:16;;;;;;;27.30;15.23;;;;;;;14.70;100.00;98130.03;4959423;28;20050;-78
2021/06/26 00:47:42;;;;;;;26.45;14.18;;;;;;;14.71;100.00;98124.22;4976751;28;20051;-80
2021/06/26 00:50:15;;;;;;;25.25;14.98;;;;;;;14.78;100.00;98137.38;4976422;28;20463;-80
2021/06/26 00:52:41;;;;;;;30.75;16.15;;;;;;;14.76;100.00;98139.63;4975576;28;20065;-80
2021/06/26 00:55:09;;;;;;;31.58;15.00;;;;;;;14.77;100.00;98139.28;4940324;28;20043;-81
2021/06/26 00:57:36;;;;;;;30.15;17.13;;;;;;;14.78;100.00;98148.25;4955500;28;20113;-81
2021/06/26 01:00:05;;;;;;;34.40;16.58;;;;;;;14.81;100.00;98142.16;4972887;28;20043;-80
2021/06/26 01:02:31;;;;;;;40.35;17.90;;;;;;;14.77;100.00;98135.75;4956005;28;20116;-81
2021/06/26 01:05:00;;;;;;;35.67;17.10;;;;;;;14.75;100.00;98135.28;4973725;28;20047;-80
2021/06/26 01:07:27;;;;;;;32.55;18.20;;;;;;;14.72;100.00;98134.03;4975762;28;20046;-80
2021/06/26 01:09:53;;;;;;;39.30;19.65;;;;;;;14.77;100.00;98141.19;4973250;28;20192;-81
2021/06/26 01:12:20;;;;;;;36.03;19.70;;;;;;;14.73;100.00;98143.81;4973212;28;20051;-79
2021/06/26 01:14:49;;;;;;;39.95;20.02;;;;;;;14.75;100.00;98141.53;4954189;28;20054;-80
2021/06/26 01:17:15;;;;;;;37.20;19.42;;;;;;;14.78;100.00;98140.91;4974005;28;20131;-81
2021/06/26 01:19:42;;;;;;;36.10;20.00;;;;;;;14.78;100.00;98143.63;4954832;28;20046;-82
2021/06/26 01:22:10;;;;;;;38.80;21.25;;;;;;;14.76;100.00;98145.84;4973352;28;20042;-80
2021/06/26 01:24:37;;;;;;;40.40;21.50;;;;;;;14.77;100.00;98141.19;4957123;28;20113;-79
2021/06/26 01:27:06;;;;;;;41.38;21.90;;;;;;;14.75;100.00;98138.00;4974513;28;20153;-81
2021/06/26 01:29:33;;;;;;;34.15;20.08;;;;;;;14.70;100.00;98135.47;4980031;28;20102;-81
2021/06/26 01:32:00;;;;;;;43.90;20.88;;;;;;;14.59;100.00;98123.34;4961685;28;20047;-78
2021/06/26 01:34:26;;;;;;;40.85;20.95;;;;;;;14.52;100.00;98125.78;4959700;28;20062;-79
2021/06/26 01:36:53;;;;;;;43.72;22.58;;;;;;;14.45;100.00;98120.88;4977738;28;20043;-79
2021/06/26 01:39:20;;;;;;;47.80;21.88;;;;;;;14.43;100.00;98134.00;4976894;28;20073;-80
2021/06/26 01:41:46;;;;;;;43.72;22.20;;;;;;;14.32;100.00;98130.06;4977469;28;20046;-79
2021/06/26 01:44:14;;;;;;;40.65;21.17;;;;;;;14.35;100.00;98129.38;4959049;28;20055;-78
2021/06/26 01:46:41;;;;;;;47.55;21.45;;;;;;;14.32;100.00;98128.13;4977568;28;20043;-79
2021/06/26 01:49:11;;;;;;;51.08;22.40;;;;;;;14.26;100.00;98121.25;4960516;28;20063;-79
2021/06/26 01:51:38;;;;;;;45.10;21.38;;;;;;;14.23;100.00;98129.25;5040954;23;20111;-83
2021/06/26 01:54:11;;;;;;;47.63;19.67;;;;;;;14.16;100.00;98118.88;5020830;28;20057;-82
2021/06/26 01:56:41;;;;;;;48.03;22.60;;;;;;;14.00;100.00;98125.16;5004488;28;20049;-81
2021/06/26 01:59:08;;;;;;;45.00;21.95;;;;;;;13.88;100.00;98125.03;5005450;28;20128;-82
2021/06/26 02:01:35;;;;;;;53.40;21.77;;;;;;;13.85;100.00;98121.06;5022254;28;20100;-81
2021/06/26 02:04:05;;;;;;;55.72;23.92;;;;;;;13.84;100.00;98124.88;5020781;28;20065;-81
2021/06/26 02:06:32;;;;;;;56.47;25.23;;;;;;;13.81;100.00;98124.75;5032282;28;20042;-80
2021/06/26 02:08:58;;;;;;;62.30;25.25;;;;;;;13.69;100.00;98128.94;5015426;28;20041;-81
2021/06/26 02:11:27;;;;;;;58.53;24.90;;;;;;;13.71;100.00;98121.22;5019925;28;20050;-81
2021/06/26 02:13:54;;;;;;;60.58;26.52;;;;;;;13.68;100.00;98135.47;5038625;28;20107;-81
2021/06/26 02:16:20;;;;;;;59.63;26.08;;;;;;;13.65;100.00;98136.13;5017774;28;20069;-80
2021/06/26 02:18:47;;;;;;;60.03;25.10;;;;;;;13.63;100.00;98138.38;5014769;28;20119;-81
2021/06/26 02:21:13;;;;;;;53.45;19.60;;;;;;;13.56;100.00;98145.41;5033498;28;20114;-80
2021/06/26 02:23:40;;;;;;;51.20;23.27;;;;;;;13.43;100.00;98140.94;5033863;28;20065;-79
2021/06/26 02:26:08;;;;;;;51.28;22.88;;;;;;;13.55;100.00;98147.34;5035999;28;20100;-80
2021/06/26 02:28:35;;;;;;;51.80;23.90;;;;;;;13.49;100.00;98145.91;5034585;28;20053;-81
2021/06/26 02:31:02;;;;;;;71.03;25.60;;;;;;;13.45;100.00;98142.22;5034272;28;20045;-80
2021/06/26 02:33:28;;;;;;;69.55;24.35;;;;;;;13.39;100.00;98162.56;5035349;28;20048;-83
2021/06/26 02:35:55;;;;;;;68.15;20.92;;;;;;;13.31;100.00;98149.75;5034400;28;20046;-81
2021/06/26 02:38:21;;;;;;;69.43;23.95;;;;;;;13.34;100.00;98157.28;5034962;28;20103;-81
2021/06/26 02:40:48;;;;;;;150.80;26.60;;;;;;;13.34;100.00;98153.75;5038481;28;20659;-81
2021/06/26 02:43:14;;;;;;;92.03;21.80;;;;;;;13.34;100.00;98135.53;5037624;28;20038;-82
2021/06/26 02:45:41;;;;;;;266.48;24.30;;;;;;;13.32;100.00;98150.53;5036333;28;20041;-82
2021/06/26 02:48:08;;;;;;;109.80;23.77;;;;;;;13.30;100.00;98139.19;5037226;28;20049;-82
2021/06/26 02:50:34;;;;;;;314.45;29.88;;;;;;;13.40;100.00;98147.00;5019763;28;20053;-82
2021/06/26 02:53:01;;;;;;;263.90;28.17;;;;;;;13.41;100.00;98152.16;5003863;28;20045;-83
2021/06/26 02:55:28;;;;;;;131.18;27.58;;;;;;;13.43;100.00;98149.91;5037580;28;20111;-81
2021/06/26 02:57:57;;;;;;;130.77;25.92;;;;;;;13.39;100.00;98154.41;5004715;28;20053;-82
2021/06/26 03:00:23;;;;;;;499.20;25.67;;;;;;;13.31;100.00;98160.63;5002447;28;20464;-81
2021/06/26 03:03:08;;;;;;;408.45;25.30;;;;;;;13.28;100.00;98153.09;5021961;28;20045;-82
2021/06/26 03:06:12;;;;;;;283.33;26.60;;;;;;;13.31;100.00;98135.34;4945166;29;20058;-81
2021/06/26 03:08:41;;;;;;;130.90;25.17;;;;;;;13.42;100.00;98155.69;4990159;28;20117;-83
2021/06/26 03:11:08;;;;;;;326.75;29.25;;;;;;;13.27;100.00;98128.94;5040356;28;20091;-83
2021/06/26 03:13:50;;;;;;;185.13;27.50;;;;;;;13.60;100.00;98160.78;5023013;28;20049;-83
2021/06/26 03:16:28;;;;;;;705.47;34.63;;;;;;;13.60;100.00;98158.03;5040971;28;20099;-84
2021/06/26 03:19:09;;;;;;;951.45;36.78;;;;;;;13.42;100.00;98142.84;5006867;28;20045;-83
2021/06/26 03:21:48;;;;;;;296.20;26.33;;;;;;;13.36;100.00;98137.91;5009452;28;20052;-81
2021/06/26 03:24:15;;;;;;;599.58;32.90;;;;;;;13.46;100.00;98157.44;5044039;28;20041;-81
2021/06/26 03:26:42;;;;;;;302.02;28.90;;;;;;;13.43;100.00;98163.50;5043840;28;20049;-81
2021/06/26 03:29:09;;;;;;;482.38;30.45;;;;;;;13.37;100.00;98159.34;5007934;28;20122;-81
2021/06/26 03:31:35;;;;;;;234.80;25.80;;;;;;;13.36;100.00;98163.19;5025624;28;20059;-82
2021/06/26 03:34:03;;;;;;;106.53;21.70;;;;;;;13.35;100.00;98164.31;5025593;28;20407;-84
2021/06/26 03:36:30;;;;;;;194.90;22.98;;;;;;;13.21;100.00;98160.16;5044331;28;20502;-82
2021/06/26 03:38:57;;;;;;;119.45;21.67;;;;;;;13.23;100.00;98152.47;5044603;28;20037;-81
2021/06/26 03:41:26;;;;;;;145.07;24.40;;;;;;;13.30;100.00;98160.94;5044479;28;20057;-83
2021/06/26 03:43:55;;;;;;;203.10;26.58;;;;;;;13.26;100.00;98151.84;5042457;28;20053;-81
2021/06/26 03:46:22;;;;;;;79.90;21.88;;;;;;;13.29;100.00;98167.50;5045958;28;20072;-82
2021/06/26 03:48:48;;;;;;;113.72;20.15;;;;;;;13.03;100.00;98162.78;5027424;28;20076;-84
2021/06/26 03:51:15;;;;;;;87.05;20.75;;;;;;;12.96;100.00;98165.19;5047406;28;20041;-81
2021/06/26 03:53:42;;;;;;;101.57;22.23;;;;;;;12.93;100.00;98165.03;5042602;28;20041;-83
2021/06/26 03:56:11;;;;;;;83.30;20.17;;;;;;;12.83;100.00;98173.47;5028602;28;20075;-80
2021/06/26 03:58:38;;;;;;;97.78;21.75;;;;;;;12.92;100.00;98169.66;5022372;28;20049;-82
2021/06/26 04:01:04;;;;;;;67.47;22.50;;;;;;;12.93;100.00;98171.25;5039655;28;20049;-81
2021/06/26 04:03:31;;;;;;;34.55;20.27;;;;;;;12.94;100.00;98175.59;5021602;28;20625;-81
2021/06/26 04:05:58;;;;;;;37.20;22.17;;;;;;;12.98;100.00;98165.66;5038186;28;20042;-82
2021/06/26 04:08:24;;;;;;;34.58;22.00;;;;;;;13.02;100.00;98171.28;5038563;28;20049;-83
2021/06/26 04:10:51;;;;;;;31.80;19.83;;;;;;;13.04;100.00;98158.16;5038913;28;20048;-84
2021/06/26 04:13:19;;;;;;;27.02;18.40;;;;;;;12.98;100.00;98167.59;5038577;28;20069;-81
2021/06/26 04:15:46;;;;;;;37.05;19.80;;;;;;;12.95;100.00;98165.53;5020358;28;20141;-82
2021/06/26 04:18:15;;;;;;;44.75;24.42;;;;;;;12.97;100.00;98176.88;5039605;28;20049;-81
2021/06/26 04:20:42;;;;;;;43.05;24.40;;;;;;;13.07;100.00;98176.59;5037332;28;20049;-81
2021/06/26 04:23:08;;;;;;;45.75;25.73;;;;;;;13.25;100.00;98188.28;5021891;28;20068;-81
2021/06/26 04:25:35;;;;;;;41.85;24.30;;;;;;;13.24;100.00;98179.31;5023300;28;20045;-79
2021/06/26 04:28:09;;;;;;;45.50;24.05;;;;;;;13.32;100.00;98194.03;5047480;28;20051;-79
2021/06/26 04:30:37;;;;;;;49.10;25.70;;;;;;;13.42;100.00;98183.66;5047864;28;20055;-81
2021/06/26 04:33:06;;;;;;;48.30;26.95;;;;;;;13.48;100.00;98187.81;5045281;28;20103;-83
2021/06/26 04:35:33;;;;;;;52.35;26.95;;;;;;;13.62;100.00;98188.47;5038160;28;20048;-80
2021/06/26 04:38:00;;;;;;;47.78;26.25;;;;;;;13.73;100.00;98183.47;5038134;28;20047;-79
2021/06/26 04:40:27;;;;;;;51.10;26.95;;;;;;;13.82;100.00;98184.28;5019863;28;20045;-83
2021/06/26 04:42:54;;;;;;;60.95;29.73;;;;;;;13.91;100.00;98179.63;5019934;28;20048;-81
2021/06/26 04:45:22;;;;;;;63.30;32.05;;;;;;;13.97;100.00;98177.53;5001627;28;20041;-78
2021/06/26 04:47:50;;;;;;;58.03;29.67;;;;;;;14.06;100.00;98176.41;5038270;28;20060;-80
2021/06/26 04:50:17;;;;;;;62.50;31.23;;;;;;;14.14;100.00;98181.00;5036280;28;20517;-80
2021/06/26 04:52:45;;;;;;;56.88;29.73;;;;;;;14.22;100.00;98177.47;5019734;28;20091;-80
2021/06/26 04:55:13;;;;;;;64.03;32.88;;;;;;;14.33;100.00;98186.13;5003912;28;20037;-79
2021/06/26 04:57:39;;;;;;;68.35;34.90;;;;;;;14.39;100.00;98173.94;5021981;28;20037;-79
2021/06/26 05:00:07;;;;;;;69.10;32.92;;;;;;;14.46;100.00;98171.50;5018838;28;20080;-81
2021/06/26 05:02:34;;;;;;;70.18;33.55;;;;;;;14.57;100.00;98175.47;5020027;28;20478;-82
2021/06/26 05:05:00;;;;;;;67.80;34.30;;;;;;;14.64;100.00;98180.38;5038828;28;20648;-82
2021/06/26 05:07:27;;;;;;;60.72;31.65;;;;;;;14.72;100.00;98176.81;5022479;28;20399;-80
2021/06/26 05:09:57;;;;;;;63.15;32.22;;;;;;;14.79;100.00;98182.56;5023585;28;20045;-80
2021/06/26 05:12:23;;;;;;;71.15;34.80;;;;;;;14.85;100.00;98176.59;5041793;28;20041;-81
2021/06/26 05:14:50;;;;;;;64.53;33.15;;;;;;;14.95;100.00;98186.31;5038178;28;20075;-81
2021/06/26 05:17:16;;;;;;;61.15;31.67;;;;;;;15.06;100.00;98186.75;5022960;28;20049;-83
2021/06/26 05:19:43;;;;;;;60.88;32.42;;;;;;;15.12;100.00;98177.25;5030845;28;20048;-82
2021/06/26 05:22:10;;;;;;;64.47;33.70;;;;;;;15.22;100.00;98177.66;5037433;28;20120;-82
2021/06/26 05:24:36;;;;;;;60.63;34.45;;;;;;;15.34;100.00;98183.19;5020214;28;20053;-82
2021/06/26 05:27:03;;;;;;;64.03;34.47;;;;;;;15.40;100.00;98176.41;5021213;28;20049;-81
2021/06/26 05:29:31;;;;;;;59.08;33.25;;;;;;;15.49;100.00;98181.81;5041056;28;20045;-81
2021/06/26 05:31:59;;;;;;;66.30;35.72;;;;;;;15.59;100.00;98186.84;5038851;28;20053;-81
2021/06/26 05:34:26;;;;;;;62.53;34.35;;;;;;;15.73;100.00;98186.59;5018156;28;20054;-80
2021/06/26 05:36:52;;;;;;;63.63;36.00;;;;;;;15.82;100.00;98185.38;5039097;28;20497;-82
2021/06/26 05:39:19;;;;;;;62.92;35.75;;;;;;;15.88;100.00;98183.25;5004053;28;20490;-82
2021/06/26 05:41:48;;;;;;;60.63;35.15;;;;;;;15.97;100.00;98179.31;5037134;28;20060;-82
2021/06/26 05:44:14;;;;;;;65.43;35.85;;;;;;;16.03;100.00;98180.69;5018500;28;20037;-82
2021/06/26 05:46:43;;;;;;;61.10;36.30;;;;;;;16.09;100.00;98182.06;5013920;28;20046;-80
2021/06/26 05:49:10;;;;;;;62.78;36.72;;;;;;;16.19;100.00;98178.09;5000191;28;20072;-81
2021/06/26 05:51:37;;;;;;;63.70;37.08;;;;;;;16.29;100.00;98182.31;5017740;28;20050;-81
2021/06/26 05:54:04;;;;;;;66.07;38.75;;;;;;;16.37;100.00;98187.72;5000041;28;20042;-82
2021/06/26 05:56:31;;;;;;;61.45;36.83;;;;;;;16.46;100.00;98185.69;5031865;28;20050;-81
2021/06/26 05:58:58;;;;;;;64.88;37.08;;;;;;;16.57;100.00;98175.91;5020578;28;20037;-81
2021/06/26 06:01:24;;;;;;;50.45;33.10;;;;;;;16.66;100.00;98179.34;5020367;28;20064;-81
2021/06/26 06:03:53;;;;;;;50.22;32.35;;;;;;;16.72;100.00;98171.72;5034169;28;20041;-80
2021/06/26 06:06:20;;;;;;;52.35;32.72;;;;;;;16.89;100.00;98173.41;5015638;28;20050;-80
2021/06/26 06:08:46;;;;;;;47.42;31.58;;;;;;;16.80;100.00;98160.66;5015275;28;20411;-80
2021/06/26 06:11:13;;;;;;;50.10;31.58;;;;;;;16.89;100.00;98152.34;5016678;28;20473;-80
2021/06/26 06:13:41;;;;;;;49.83;32.38;;;;;;;16.94;100.00;98157.59;5031743;28;20046;-79
2021/06/26 06:16:08;;;;;;;37.85;27.80;;;;;;;17.01;100.00;98157.78;5038085;28;20052;-81
2021/06/26 06:18:35;;;;;;;44.50;30.05;;;;;;;16.98;100.00;98150.28;5037699;28;20053;-82
2021/06/26 06:21:02;;;;;;;34.85;24.58;;;;;;;17.03;100.00;98155.53;5019564;28;20037;-80
2021/06/26 06:23:29;;;;;;;30.55;21.38;;;;;;;17.05;100.00;98150.50;5038549;28;20064;-79
2021/06/26 06:25:55;;;;;;;29.27;20.27;;;;;;;17.10;100.00;98154.94;5043906;28;20045;-79
2021/06/26 06:28:22;;;;;;;23.63;17.73;;;;;;;17.20;100.00;98146.25;5043748;28;20314;-79
2021/06/26 06:30:49;;;;;;;31.38;20.65;;;;;;;17.23;100.00;98149.13;5026577;28;20057;-80
2021/06/26 06:33:17;;;;;;;35.03;24.48;;;;;;;17.38;100.00;98151.13;5010725;28;20072;-78
2021/06/26 06:35:44;;;;;;;36.95;23.92;;;;;;;17.48;100.00;98151.75;5044639;28;20053;-80
2021/06/26 06:38:11;;;;;;;27.25;19.73;;;;;;;17.47;100.00;98147.44;5046819;28;20049;-79
2021/06/26 06:40:40;;;;;;;21.02;14.75;;;;;;;17.50;100.00;98144.03;5022402;28;20053;-79
2021/06/26 06:43:07;;;;;;;21.35;13.90;;;;;;;17.57;100.00;98147.00;5040967;28;20045;-82
2021/06/26 06:45:33;;;;;;;24.55;12.90;;;;;;;17.77;100.00;98149.53;5048222;28;20037;-79
2021/06/26 06:48:01;;;;;;;23.60;15.02;;;;;;;17.81;100.00;98146.88;5011247;28;20041;-78
2021/06/26 06:50:28;;;;;;;22.67;14.80;;;;;;;17.87;100.00;98145.50;5046742;28;20120;-78
2021/06/26 06:52:56;;;;;;;27.27;16.13;;;;;;;18.01;100.00;98141.19;5044351;28;20052;-79
2021/06/26 06:55:23;;;;;;;22.42;15.00;;;;;;;18.19;100.00;98138.13;5038039;28;20103;-81
2021/06/26 06:57:50;;;;;;;23.70;17.83;;;;;;;18.15;100.00;98139.97;5036317;28;20060;-81
2021/06/26 07:00:19;;;;;;;24.63;17.35;;;;;;;18.26;100.00;98157.50;5017533;28;20115;-79
2021/06/26 07:02:49;;;;;;;24.10;16.38;;;;;;;18.42;100.00;98141.84;5037157;28;20488;-80
2021/06/26 07:05:15;;;;;;;20.83;15.25;;;;;;;18.63;100.00;98145.16;5052022;28;20048;-81
2021/06/26 07:07:43;;;;;;;23.13;16.20;;;;;;;18.76;100.00;98141.19;5020005;28;20113;-79
2021/06/26 07:10:10;;;;;;;28.23;20.55;;;;;;;18.86;100.00;98148.06;5035982;28;20445;-80
2021/06/26 07:12:38;;;;;;;36.13;21.60;;;;;;;18.65;100.00;98124.47;5035092;28;20071;-80
2021/06/26 07:15:06;;;;;;;29.73;19.85;;;;;;;18.89;100.00;98117.16;5034609;28;20041;-80
2021/06/26 07:17:33;;;;;;;30.77;19.08;;;;;;;19.25;100.00;98125.81;4996653;28;20053;-81
2021/06/26 07:19:59;;;;;;;25.35;17.55;;;;;;;19.26;100.00;98121.13;4994373;28;20054;-80
2021/06/26 07:22:26;;;;;;;22.77;15.95;;;;;;;19.61;100.00;98116.41;5029882;28;20629;-80
2021/06/26 07:24:52;;;;;;;23.85;15.50;;;;;;;19.71;100.00;98115.84;5034568;28;20099;-80
2021/06/26 07:27:19;;;;;;;21.85;14.52;;;;;;;20.03;100.00;98121.16;5026344;28;20064;-79
2021/06/26 07:29:46;;;;;;;20.33;14.55;;;;;;;20.03;100.00;98110.91;5030780;28;20056;-79
2021/06/26 07:32:12;;;;;;;23.13;16.67;;;;;;;19.67;100.00;98127.88;5059916;28;20056;-80
2021/06/26 07:34:39;;;;;;;26.52;15.07;;;;;;;20.38;100.00;98108.06;5034791;28;20045;-79
2021/06/26 07:37:06;;;;;;;24.17;14.55;;;;;;;20.79;100.00;98118.16;5016056;28;20060;-81
2021/06/26 07:39:32;;;;;;;19.08;12.73;;;;;;;20.93;100.00;98103.81;5014631;28;20053;-81
2021/06/26 07:41:59;;;;;;;10.65;7.95;;;;;;;21.02;100.00;98107.09;5034685;28;20099;-82
2021/06/26 07:44:26;;;;;;;11.10;8.20;;;;;;;21.39;100.00;98102.53;5030288;28;20552;-80
2021/06/26 07:46:52;;;;;;;19.30;12.55;;;;;;;21.22;100.00;98103.06;5031112;28;20053;-82
2021/06/26 07:49:19;;;;;;;20.10;13.57;;;;;;;21.02;100.00;98105.13;5014715;28;20498;-81
2021/06/26 07:51:46;;;;;;;16.15;12.65;;;;;;;21.87;100.00;98108.22;5034383;28;20105;-81
2021/06/26 07:54:16;;;;;;;15.88;11.15;;;;;;;21.50;100.00;98111.69;5033878;28;20052;-79
2021/06/26 07:56:44;;;;;;;15.00;10.52;;;;;;;21.63;100.00;98107.53;5035225;28;20442;-83
2021/06/26 07:59:12;;;;;;;18.23;10.52;;;;;;;21.82;100.00;98103.81;5034570;28;20057;-82
2021/06/26 08:01:39;;;;;;;13.90;10.10;;;;;;;21.76;100.00;98104.53;5035115;28;20053;-80
2021/06/26 08:04:06;;;;;;;13.40;9.57;;;;;;;21.53;100.00;98096.38;5019828;28;20131;-80
2021/06/26 08:06:35;;;;;;;12.68;8.48;;;;;;;21.33;100.00;98093.00;5035198;28;20049;-83
2021/06/26 08:09:04;;;;;;;11.43;7.88;;;;;;;21.21;100.00;98097.94;5035180;28;20060;-82
2021/06/26 08:11:30;;;;;;;12.48;8.00;;;;;;;21.00;100.00;98095.66;5036724;28;20064;-83
2021/06/26 08:13:58;;;;;;;15.90;8.30;;;;;;;21.08;100.00;98091.88;5041417;28;20064;-82
2021/06/26 08:16:25;;;;;;;11.40;7.07;;;;;;;21.31;100.00;98083.50;5002294;28;20045;-83
2021/06/26 08:18:52;;;;;;;8.73;6.30;;;;;;;21.64;100.00;98081.56;5036622;28;20136;-82
2021/06/26 08:21:20;;;;;;;13.40;6.70;;;;;;;21.73;100.00;98081.28;5035297;28;20037;-82
2021/06/26 08:23:48;;;;;;;9.18;6.80;;;;;;;21.74;100.00;98082.84;5016679;28;20041;-82
2021/06/26 08:26:18;;;;;;;9.07;6.05;;;;;;;21.31;100.00;98086.28;5037153;28;20087;-80
2021/06/26 08:28:47;;;;;;;10.38;7.03;;;;;;;21.16;100.00;98087.25;5035247;28;20042;-82
2021/06/26 08:31:14;;;;;;;11.52;7.80;;;;;;;21.06;100.00;98080.41;5036186;28;20053;-81
2021/06/26 08:33:41;;;;;;;12.25;8.38;;;;;;;20.79;100.00;98081.56;5017314;28;20042;-83
2021/06/26 08:36:08;;;;;;;13.30;8.35;;;;;;;20.78;100.00;98067.00;5034779;28;20080;-82
2021/06/26 08:38:39;;;;;;;12.90;8.60;;;;;;;21.10;100.00;98076.56;5017189;28;20442;-82
2021/06/26 08:41:06;;;;;;;11.60;8.30;;;;;;;21.37;100.00;98076.53;5035279;28;20098;-82
2021/06/26 08:43:34;;;;;;;11.73;7.60;;;;;;;20.88;100.00;98065.59;5034626;28;20060;-82
2021/06/26 08:46:00;;;;;;;8.77;6.68;;;;;;;21.41;100.00;98082.84;5035760;28;20548;-83
2021/06/26 08:48:27;;;;;;;9.30;5.50;;;;;;;21.94;100.00;98078.00;5034636;28;20045;-82
2021/06/26 08:50:55;;;;;;;7.75;5.50;;;;;;;22.42;100.00;98073.28;5035105;28;20041;-78
2021/06/26 08:53:22;;;;;;;9.45;5.88;;;;;;;22.80;100.00;98070.84;5016874;28;20059;-79
2021/06/26 08:55:52;;;;;;;9.77;6.03;;;;;;;22.41;100.00;98074.47;5034351;28;20056;-80
2021/06/26 08:58:20;;;;;;;7.55;5.60;;;;;;;22.93;100.00;98079.63;5033598;28;20049;-80
2021/06/26 09:00:50;;;;;;;8.85;4.95;;;;;;;22.86;100.00;98068.53;5015880;28;20042;-81
2021/06/26 09:03:23;;;;;;;7.15;5.22;;;;;;;23.61;100.00;98075.25;5033160;28;20556;-79
2021/06/26 09:05:50;;;;;;;8.13;6.00;;;;;;;23.91;100.00;98057.16;5032336;28;20144;-81
2021/06/26 09:08:18;;;;;;;9.90;6.35;;;;;;;23.86;100.00;98067.81;5031248;28;20041;-79
2021/06/26 09:10:47;;;;;;;7.60;5.43;;;;;;;24.09;100.00;98073.81;5032771;28;20049;-81
2021/06/26 09:13:23;;;;;;;7.88;5.85;;;;;;;23.38;100.00;98065.28;5011853;28;20445;-80
2021/06/26 09:16:03;;;;;;;6.18;5.20;;;;;;;23.70;100.00;98067.38;4996968;28;20053;-80
2021/06/26 09:18:41;;;;;;;8.82;5.80;;;;;;;24.12;100.00;98068.28;5013256;28;20045;-82
2021/06/26 09:24:14;;;;;;;8.07;5.53;;;;;;;23.74;100.00;98070.94;5030682;28;20059;-81
2021/06/26 09:26:43;;;;;;;8.35;5.45;;;;;;;24.04;100.00;98074.16;5014956;28;20116;-80
2021/06/26 09:29:14;;;;;;;8.48;5.32;;;;;;;24.47;100.00;98072.25;5030804;28;20045;-81
2021/06/26 09:32:02;;;;;;;9.02;6.20;;;;;;;24.99;100.00;98074.22;5011453;28;20103;-83
2021/06/26 09:34:42;;;;;;;8.95;5.88;;;;;;;25.06;100.00;98071.41;5012082;28;20486;-82
2021/06/26 09:37:12;;;;;;;6.82;5.57;;;;;;;25.43;100.00;98073.69;5031068;28;20091;-81
2021/06/26 09:39:43;;;;;;;8.52;6.03;;;;;;;25.27;100.00;98065.81;5011792;28;20033;-82
2021/06/26 09:42:16;;;;;;;7.15;5.20;;;;;;;26.02;100.00;98080.16;5033530;28;20414;-78
2021/06/26 09:44:59;;;;;;;9.85;5.22;;;;;;;26.57;97.43;98078.19;5031468;28;20038;-81
2021/06/26 09:47:29;;;;;;;8.48;5.60;;;;;;;26.66;100.00;98079.72;5015698;28;20045;-80
2021/06/26 09:50:06;;;;;;;6.88;4.55;;;;;;;27.47;84.40;98070.56;5026194;28;20442;-82
2021/06/26 09:52:42;;;;;;;5.32;4.50;;;;;;;27.18;78.55;98065.31;5016243;28;20700;-81
2021/06/26 09:55:13;;;;;;;7.00;4.78;;;;;;;27.46;66.95;98069.03;5030480;28;20041;-83
2021/06/26 09:57:40;;;;;;;5.88;4.65;;;;;;;28.13;62.85;98070.91;5035846;28;20461;-81
2021/06/26 10:00:08;;;;;;;5.75;4.60;;;;;;;28.99;50.10;98064.31;5053798;28;20045;-82
2021/06/26 10:02:35;;;;;;;6.57;4.20;;;;;;;30.14;47.10;98054.00;5057615;28;20921;-81
2021/06/26 10:05:07;;;;;;;4.82;4.28;;;;;;;29.72;57.31;98054.91;5047501;28;20049;-81
2021/06/26 10:07:38;;;;;;;7.40;4.60;;;;;;;29.07;52.91;98051.03;5017742;28;20580;-82
2021/06/26 10:10:06;;;;;;;8.07;4.13;;;;;;;27.21;76.14;98052.56;5035191;28;20119;-81
2021/06/26 10:12:36;;;;;;;5.20;4.50;;;;;;;25.92;97.91;98062.38;5036354;28;20073;-81
2021/06/26 10:15:09;;;;;;;5.90;4.82;;;;;;;24.53;100.00;98054.06;5013905;28;20567;-82
2021/06/26 10:17:37;;;;;;;8.63;5.55;;;;;;;24.02;100.00;98062.72;5034299;28;20056;-81
2021/06/26 10:20:12;;;;;;;9.85;5.68;;;;;;;23.46;100.00;98057.81;5033112;28;20041;-83
2021/06/26 10:22:42;;;;;;;6.15;5.53;;;;;;;23.11;100.00;98055.66;5061867;28;20564;-81
2021/06/26 10:25:10;;;;;;;7.25;5.78;;;;;;;23.53;100.00;98047.59;5049396;28;20021;-81
2021/06/26 10:27:38;;;;;;;7.50;6.13;;;;;;;25.15;100.00;98062.69;5054224;28;20055;-81
2021/06/26 10:30:21;;;;;;;7.45;5.78;;;;;;;24.92;100.00;98054.84;5043088;28;20307;-81
2021/06/26 10:32:57;;;;;;;9.18;6.18;;;;;;;24.38;100.00;98058.81;5017659;28;20044;-82
2021/06/26 10:35:26;;;;;;;8.80;6.57;;;;;;;25.85;90.03;98054.09;5030781;28;20049;-81
2021/06/26 10:38:08;;;;;;;7.63;5.40;;;;;;;25.96;91.13;98057.59;5051816;28;20052;-79
2021/06/26 10:40:42;;;;;;;6.80;5.05;;;;;;;27.98;71.18;98052.81;5030458;28;20234;-80
2021/06/26 10:43:24;;;;;;;7.80;4.40;;;;;;;29.82;62.98;98044.75;5047839;28;20114;-79
2021/06/26 10:46:07;;;;;;;6.90;4.25;;;;;;;31.24;57.93;98037.25;5008906;28;20053;-79
2021/06/26 10:48:35;;;;;;;4.28;3.88;;;;;;;32.08;48.59;98045.19;5025973;28;20115;-79
2021/06/26 10:51:07;;;;;;;5.63;3.78;;;;;;;31.85;46.18;98046.25;5009868;28;20509;-78
2021/06/26 10:53:35;;;;;;;6.35;4.30;;;;;;;29.53;54.41;98041.75;5044997;28;20095;-78
2021/06/26 10:56:10;;;;;;;6.57;4.00;;;;;;;27.93;68.23;98037.34;5028595;28;20080;-78
2021/06/26 10:58:42;;;;;;;8.05;3.97;;;;;;;29.79;64.59;98034.44;5045099;28;20053;-78
2021/06/26 11:01:14;;;;;;;9.63;4.32;;;;;;;31.10;48.08;98032.06;5024190;28;20045;-79
2021/06/26 11:03:42;;;;;;;7.65;3.35;;;;;;;32.51;47.66;98024.97;5011101;28;20053;-80
2021/06/26 11:06:26;;;;;;;4.00;3.38;;;;;;;33.11;42.30;98023.69;5029212;28;20053;-79
2021/06/26 11:08:55;;;;;;;5.32;3.58;;;;;;;32.77;42.59;98020.13;5026944;28;20046;-81
2021/06/26 11:11:50;;;;;;;3.45;2.88;;;;;;;34.53;39.44;98015.44;5029412;28;20120;-81
2021/06/26 11:14:26;;;;;;;7.28;3.90;;;;;;;33.77;40.61;98013.25;5030383;28;20100;-80
2021/06/26 11:16:55;;;;;;;8.68;3.60;;;;;;;32.44;40.41;98017.56;5031689;28;20077;-81
2021/06/26 11:19:30;;;;;;;4.75;3.72;;;;;;;33.24;40.21;98007.59;5010384;28;20104;-81
2021/06/26 11:21:57;;;;;;;5.95;3.72;;;;;;;33.99;35.66;98022.44;5039818;28;20497;-82
2021/06/26 11:24:50;;;;;;;5.05;3.28;;;;;;;35.11;35.63;98018.97;5051240;28;20449;-81